createdAt,value
2022-09-20T00:00:13.401Z,10.80
2022-09-20T00:03:02.913Z,10.80
2022-09-20T00:05:51.049Z,10.70
2022-09-20T00:08:40.226Z,10.70
2022-09-20T00:11:31.126Z,10.70
2022-09-20T00:14:19.288Z,10.60
2022-09-20T00:17:07.562Z,10.60
2022-09-20T00:19:57.069Z,10.60
2022-09-20T00:22:45.298Z,10.60
2022-09-20T00:25:33.451Z,10.50
2022-09-20T00:28:21.620Z,10.50
2022-09-20T00:31:09.910Z,10.50
2022-09-20T00:34:16.313Z,10.40
2022-09-20T00:37:05.963Z,10.40
2022-09-20T00:39:54.120Z,10.40
2022-09-20T00:42:42.783Z,10.30
2022-09-20T00:45:32.293Z,10.30
2022-09-20T00:48:26.550Z,10.30
2022-09-20T00:51:18.885Z,10.30
2022-09-20T00:54:11.547Z,10.30
2022-09-20T00:56:59.881Z,10.20
2022-09-20T00:59:50.458Z,10.20
2022-09-20T01:02:42.637Z,10.20
2022-09-20T01:05:30.981Z,10.20
2022-09-20T01:08:19.894Z,10.20
2022-09-20T01:11:09.515Z,10.10
2022-09-20T01:13:57.905Z,10.10
2022-09-20T01:16:46.264Z,10.10
2022-09-20T01:19:41.285Z,10.00
2022-09-20T01:22:40.666Z,10.00
2022-09-20T01:25:48.815Z,10.00
2022-09-20T01:28:42.188Z,10.00
2022-09-20T01:31:34.363Z,9.90
2022-09-20T01:34:29.221Z,10.00
2022-09-20T01:37:25.106Z,10.00
2022-09-20T01:40:20.500Z,10.00
2022-09-20T01:43:17.400Z,9.90
2022-09-20T01:46:19.138Z,9.90
2022-09-20T01:49:21.628Z,9.90
2022-09-20T01:52:38.873Z,9.80
2022-09-20T01:56:00.363Z,9.80
2022-09-20T01:59:25.316Z,9.70
2022-09-20T02:02:46.797Z,9.80
2022-09-20T02:05:47.656Z,9.70
2022-09-20T02:09:04.105Z,9.60
2022-09-20T02:12:14.212Z,9.70
2022-09-20T02:15:14.996Z,9.60
2022-09-20T02:18:19.444Z,9.70
2022-09-20T02:21:18.829Z,9.70
2022-09-20T02:24:20.810Z,9.80
2022-09-20T02:27:19.218Z,9.80
2022-09-20T02:30:20.470Z,9.80
2022-09-20T02:33:18.667Z,9.90
2022-09-20T02:36:22.825Z,9.90
2022-09-20T02:39:16.504Z,9.90
2022-09-20T02:42:13.324Z,9.90
2022-09-20T02:45:08.094Z,10.00
2022-09-20T02:48:03.272Z,10.00
2022-09-20T02:51:00.568Z,10.10
2022-09-20T02:53:59.684Z,10.10
2022-09-20T02:56:56.636Z,10.10
2022-09-20T02:59:52.440Z,10.10
2022-09-20T03:02:52.070Z,10.20
2022-09-20T03:05:52.142Z,10.20
2022-09-20T03:08:50.144Z,10.20
2022-09-20T03:11:48.469Z,10.30
2022-09-20T03:14:39.235Z,10.30
2022-09-20T03:17:36.538Z,10.30
2022-09-20T03:20:35.330Z,10.30
2022-09-20T03:23:39.337Z,10.40
2022-09-20T03:26:41.082Z,10.40
2022-09-20T03:29:40.655Z,10.50
2022-09-20T03:32:46.461Z,10.50
2022-09-20T03:35:50.858Z,10.50
2022-09-20T03:39:03.053Z,10.60
2022-09-20T03:42:13.066Z,10.60
2022-09-20T03:45:31.975Z,10.60
2022-09-20T03:48:37.477Z,10.70
2022-09-20T03:51:33.889Z,10.70
2022-09-20T03:54:46.857Z,10.70
2022-09-20T03:57:53.491Z,10.70
2022-09-20T04:00:59.828Z,10.80
2022-09-20T04:03:56.711Z,10.80
2022-09-20T04:07:10.039Z,10.80
2022-09-20T04:10:24.174Z,10.80
2022-09-20T04:13:27.445Z,10.80
2022-09-20T04:16:24.237Z,10.70
2022-09-20T04:19:22.777Z,10.70
2022-09-20T04:22:11.223Z,10.70
2022-09-20T04:25:05.306Z,10.70
2022-09-20T04:27:58.032Z,10.70
2022-09-20T04:30:48.840Z,10.70
2022-09-20T04:33:43.212Z,10.70
2022-09-20T04:36:50.043Z,10.60
2022-09-20T04:39:46.452Z,10.60
2022-09-20T04:43:17.437Z,10.60
2022-09-20T04:46:46.363Z,10.60
2022-09-20T04:49:58.397Z,10.60
2022-09-20T04:53:14.745Z,10.60
2022-09-20T04:56:12.093Z,10.60
2022-09-20T04:59:07.835Z,10.70
2022-09-20T05:02:21.848Z,10.60
2022-09-20T05:05:35.804Z,10.70
2022-09-20T05:08:55.381Z,10.70
2022-09-20T05:12:00.765Z,10.80
2022-09-20T05:15:05.886Z,10.80
2022-09-20T05:18:21.617Z,10.80
2022-09-20T05:21:23.150Z,10.80
2022-09-20T05:24:45.313Z,10.80
2022-09-20T05:27:43.976Z,10.80
2022-09-20T05:30:39.032Z,10.90
2022-09-20T05:33:35.147Z,10.80
2022-09-20T05:36:34.587Z,10.80
2022-09-20T05:39:33.950Z,10.80
2022-09-20T05:42:32.742Z,10.80
2022-09-20T05:45:41.153Z,10.80
2022-09-20T05:48:41.458Z,10.80
2022-09-20T05:51:41.062Z,10.90
2022-09-20T05:54:51.957Z,11.00
2022-09-20T05:57:56.470Z,11.00
2022-09-20T06:00:50.680Z,11.00
2022-09-20T06:03:45.528Z,11.00
2022-09-20T06:06:47.150Z,11.10
2022-09-20T06:09:56.156Z,11.10
2022-09-20T06:12:55.364Z,11.10
2022-09-20T06:15:50.558Z,11.10
2022-09-20T06:18:47.762Z,11.10
2022-09-20T06:21:46.373Z,11.10
2022-09-20T06:24:40.308Z,11.00
2022-09-20T06:27:35.226Z,11.10
2022-09-20T06:30:27.353Z,11.10
2022-09-20T06:33:17.908Z,11.10
2022-09-20T06:36:29.312Z,11.10
2022-09-20T06:39:48.598Z,11.10
2022-09-20T06:42:39.135Z,11.10
2022-09-20T06:45:27.344Z,11.10
2022-09-20T06:48:15.655Z,11.10
2022-09-20T06:51:03.844Z,11.20
2022-09-20T06:53:55.091Z,11.30
2022-09-20T06:56:46.817Z,11.40
2022-09-20T06:59:35.361Z,11.40
2022-09-20T07:02:23.619Z,11.40
2022-09-20T07:05:16.095Z,11.40
2022-09-20T07:08:04.307Z,11.40
2022-09-20T07:10:54.626Z,11.50
2022-09-20T07:13:43.596Z,11.60
2022-09-20T07:16:31.847Z,11.70
2022-09-20T07:19:20.115Z,11.70
2022-09-20T07:22:08.523Z,11.70
2022-09-20T07:24:56.753Z,11.70
2022-09-20T07:27:47.313Z,11.80
2022-09-20T07:30:35.512Z,11.90
2022-09-20T07:33:25.049Z,12.00
2022-09-20T07:36:13.996Z,12.10
2022-09-20T07:39:02.168Z,12.10
2022-09-20T07:41:51.207Z,12.10
2022-09-20T07:44:42.339Z,12.10
2022-09-20T07:47:31.471Z,12.10
2022-09-20T07:50:19.666Z,12.20
2022-09-20T07:53:07.896Z,12.20
2022-09-20T07:56:00.411Z,12.20
2022-09-20T07:58:52.269Z,12.20
2022-09-20T08:01:43.141Z,12.20
2022-09-20T08:04:31.300Z,12.30
2022-09-20T08:07:20.523Z,12.30
2022-09-20T08:10:09.541Z,12.40
2022-09-20T08:16:08.773Z,12.40
2022-09-20T08:19:00.165Z,12.40
2022-09-20T08:21:49.900Z,12.40
2022-09-20T08:24:38.026Z,12.50
2022-09-20T08:27:26.372Z,12.50
2022-09-20T08:30:15.015Z,12.60
2022-09-20T08:33:04.945Z,12.60
2022-09-20T08:35:57.798Z,12.60
2022-09-20T08:41:56.964Z,12.60
2022-09-20T08:44:59.992Z,12.60
2022-09-20T08:47:53.304Z,12.60
2022-09-20T08:50:44.815Z,12.60
2022-09-20T08:53:34.977Z,12.70
2022-09-20T08:56:23.867Z,12.70
2022-09-20T08:59:16.604Z,12.70
2022-09-20T09:02:04.901Z,12.70
2022-09-20T09:04:53.771Z,12.70
2022-09-20T09:07:41.973Z,12.80
2022-09-20T09:10:45.401Z,12.80
2022-09-20T09:13:42.285Z,12.80
2022-09-20T09:16:35.744Z,12.80
2022-09-20T09:19:36.802Z,12.80
2022-09-20T09:22:29.584Z,12.90
2022-09-20T09:25:28.738Z,13.00
2022-09-20T09:28:23.919Z,13.10
2022-09-20T09:31:25.810Z,13.10
2022-09-20T09:34:27.901Z,13.10
2022-09-20T09:37:29.099Z,13.10
2022-09-20T09:40:19.491Z,13.10
2022-09-20T09:43:07.893Z,13.10
2022-09-20T09:46:17.660Z,13.10
2022-09-20T09:49:16.839Z,13.20
2022-09-20T09:52:13.059Z,13.20
2022-09-20T09:55:05.691Z,13.20
2022-09-20T09:58:00.664Z,13.30
2022-09-20T10:00:49.983Z,13.30
2022-09-20T10:03:52.902Z,13.40
2022-09-20T10:06:52.093Z,13.50
2022-09-20T10:09:58.866Z,13.60
2022-09-20T10:12:57.656Z,13.70
2022-09-20T10:15:56.465Z,13.80
2022-09-20T10:18:53.949Z,13.80
2022-09-20T10:21:52.499Z,13.80
2022-09-20T10:24:51.512Z,13.90
2022-09-20T10:27:49.358Z,14.00
2022-09-20T10:30:57.214Z,14.10
2022-09-20T10:33:57.972Z,14.10
2022-09-20T10:36:53.081Z,14.10
2022-09-20T10:39:42.054Z,14.00
2022-09-20T10:42:57.361Z,14.00
2022-09-20T10:49:23.912Z,14.30
2022-09-20T10:52:28.941Z,14.20
2022-09-20T10:55:35.624Z,14.30
2022-09-20T10:59:05.184Z,14.30
2022-09-20T11:02:06.805Z,14.50
2022-09-20T11:05:21.653Z,14.60
2022-09-20T11:08:14.878Z,14.70
2022-09-20T11:11:10.380Z,14.70
2022-09-20T11:14:04.773Z,14.70
2022-09-20T11:16:57.837Z,14.70
2022-09-20T11:19:53.148Z,15.10
2022-09-20T11:22:48.218Z,15.20
2022-09-20T11:25:44.518Z,15.20
2022-09-20T11:28:37.434Z,15.10
2022-09-20T11:31:29.053Z,15.30
2022-09-20T11:34:22.613Z,15.50
2022-09-20T11:37:11.393Z,15.70
2022-09-20T11:40:04.109Z,15.90
2022-09-20T11:42:53.293Z,16.10
2022-09-20T11:45:43.612Z,16.10
2022-09-20T11:48:35.909Z,16.20
2022-09-20T11:51:46.373Z,16.10
2022-09-20T11:55:04.315Z,16.00
2022-09-20T11:58:08.083Z,15.90
2022-09-20T12:01:00.026Z,16.00
2022-09-20T12:04:04.111Z,16.20
2022-09-20T12:07:09.415Z,16.40
2022-09-20T12:10:04.521Z,16.70
2022-09-20T12:12:59.473Z,16.90
2022-09-20T12:15:57.919Z,17.00
2022-09-20T12:19:07.987Z,17.00
2022-09-20T12:22:18.225Z,17.00
2022-09-20T12:25:36.857Z,17.10
2022-09-20T12:28:34.529Z,17.00
2022-09-20T12:31:49.354Z,17.10
2022-09-20T12:34:38.117Z,17.10
2022-09-20T12:37:27.964Z,17.30
2022-09-20T12:40:18.307Z,17.40
2022-09-20T12:43:18.322Z,17.50
2022-09-20T12:46:11.802Z,17.50
2022-09-20T12:49:41.824Z,17.50
2022-09-20T12:52:57.415Z,17.60
2022-09-20T12:55:56.346Z,17.60
2022-09-20T12:58:53.658Z,17.80
2022-09-20T13:01:43.616Z,18.00
2022-09-20T13:05:02.085Z,18.20
2022-09-20T13:07:59.325Z,18.30
2022-09-20T13:10:51.150Z,18.30
2022-09-20T13:13:45.325Z,18.30
2022-09-20T13:16:43.227Z,18.40
2022-09-20T13:19:37.950Z,18.50
2022-09-20T13:22:28.889Z,18.40
2022-09-20T13:25:20.415Z,18.30
2022-09-20T13:28:20.968Z,17.90
2022-09-20T13:31:29.683Z,17.60
2022-09-20T13:34:24.578Z,17.30
2022-09-20T13:37:21.050Z,17.60
2022-09-20T13:40:19.192Z,17.90
2022-09-20T13:43:24.000Z,18.10
2022-09-20T13:46:16.472Z,18.20
2022-09-20T13:49:23.057Z,18.40
2022-09-20T13:52:24.002Z,18.50
2022-09-20T13:55:33.158Z,18.40
2022-09-20T13:58:24.893Z,18.50
2022-09-20T14:01:25.029Z,18.50
2022-09-20T14:04:17.294Z,18.60
2022-09-20T14:07:08.361Z,18.60
2022-09-20T14:09:58.907Z,18.60
2022-09-20T14:12:49.146Z,18.80
2022-09-20T14:15:39.639Z,19.10
2022-09-20T14:18:27.872Z,19.40
2022-09-20T14:21:24.453Z,19.50
2022-09-20T14:24:30.464Z,19.30
2022-09-20T14:27:21.739Z,19.10
2022-09-20T14:30:32.147Z,18.90
2022-09-20T14:33:22.541Z,18.80
2022-09-20T14:36:15.729Z,18.90
2022-09-20T14:39:06.100Z,19.10
2022-09-20T14:41:55.517Z,19.60
2022-09-20T14:44:45.176Z,20.20
2022-09-20T14:47:38.563Z,20.40
2022-09-20T14:50:30.460Z,20.40
2022-09-20T14:53:26.825Z,20.40
2022-09-20T14:56:16.696Z,20.50
2022-09-20T14:59:08.069Z,20.20
2022-09-20T15:02:04.504Z,20.30
2022-09-20T15:04:54.685Z,19.80
2022-09-20T15:07:42.857Z,19.40
2022-09-20T15:10:31.047Z,19.10
2022-09-20T15:13:19.393Z,18.70
2022-09-20T15:16:08.321Z,18.50
2022-09-20T15:18:57.893Z,18.70
2022-09-20T15:21:46.082Z,19.00
2022-09-20T15:24:34.244Z,19.40
2022-09-20T15:27:27.548Z,19.80
2022-09-20T15:30:19.685Z,20.00
2022-09-20T15:33:07.826Z,20.20
2022-09-20T15:35:57.429Z,20.50
2022-09-20T15:38:45.971Z,20.60
2022-09-20T15:41:34.721Z,20.60
2022-09-20T15:44:22.920Z,20.50
2022-09-20T15:47:15.404Z,20.50
2022-09-20T15:50:08.440Z,20.30
2022-09-20T15:52:59.966Z,20.10
2022-09-20T15:55:48.394Z,19.80
2022-09-20T15:58:36.820Z,19.60
2022-09-20T16:01:25.798Z,19.40
2022-09-20T16:04:17.254Z,19.00
2022-09-20T16:07:05.740Z,18.70
2022-09-20T16:09:56.839Z,18.40
2022-09-20T16:12:44.974Z,18.10
2022-09-20T16:15:33.125Z,17.80
2022-09-20T16:18:38.870Z,17.60
2022-09-20T16:21:27.457Z,17.40
2022-09-20T16:24:16.669Z,17.30
2022-09-20T16:27:08.471Z,17.10
2022-09-20T16:29:56.657Z,16.90
2022-09-20T16:32:44.819Z,16.70
2022-09-20T16:35:34.144Z,16.60
2022-09-20T16:38:23.043Z,16.50
2022-09-20T16:41:11.729Z,16.40
2022-09-20T16:44:01.268Z,16.30
2022-09-20T16:46:49.484Z,16.20
2022-09-20T16:49:38.330Z,16.10
2022-09-20T16:52:27.485Z,16.10
2022-09-20T16:55:15.903Z,15.90
2022-09-20T16:58:04.680Z,15.80
2022-09-20T17:00:54.247Z,15.70
2022-09-20T17:03:42.453Z,15.60
2022-09-20T17:06:31.062Z,15.50
2022-09-20T17:09:19.498Z,15.40
2022-09-20T17:12:09.576Z,15.30
2022-09-20T17:14:57.834Z,15.20
2022-09-20T17:17:47.368Z,15.20
2022-09-20T17:20:35.568Z,15.00
2022-09-20T17:23:24.462Z,15.00
2022-09-20T17:26:14.950Z,14.90
2022-09-20T17:29:05.812Z,14.80
2022-09-20T17:31:56.275Z,14.70
2022-09-20T17:34:47.699Z,14.60
2022-09-20T17:37:35.862Z,14.60
2022-09-20T17:40:24.128Z,14.50
2022-09-20T17:43:12.306Z,14.40
2022-09-20T17:46:13.114Z,14.30
2022-09-20T17:49:03.057Z,14.20
2022-09-20T17:51:54.030Z,14.10
2022-09-20T17:54:42.182Z,13.90
2022-09-20T17:57:30.370Z,13.80
2022-09-20T18:00:18.710Z,13.70
2022-09-20T18:03:06.899Z,13.50
2022-09-20T18:05:55.090Z,13.50
2022-09-20T18:08:47.378Z,13.40
2022-09-20T18:11:37.662Z,13.40
2022-09-20T18:14:27.837Z,13.30
2022-09-20T18:17:16.453Z,13.30
2022-09-20T18:20:05.990Z,13.20
2022-09-20T18:22:54.148Z,13.10
2022-09-20T18:26:15.795Z,13.00
2022-09-20T18:29:06.485Z,13.00
2022-09-20T18:31:55.621Z,12.90
2022-09-20T18:34:43.812Z,12.90
2022-09-20T18:37:32.010Z,12.90
2022-09-20T18:40:21.308Z,12.90
2022-09-20T18:43:10.868Z,12.90
2022-09-20T18:45:59.924Z,12.80
2022-09-20T18:48:48.537Z,12.80
2022-09-20T18:51:40.105Z,12.80
2022-09-20T18:54:30.252Z,12.70
2022-09-20T18:57:19.058Z,12.60
2022-09-20T19:00:12.348Z,12.60
2022-09-20T19:03:10.267Z,12.60
2022-09-20T19:06:05.125Z,12.60
2022-09-20T19:09:01.757Z,12.50
2022-09-20T19:12:02.801Z,12.50
2022-09-20T19:15:24.447Z,12.40
2022-09-20T19:18:35.676Z,12.40
2022-09-20T19:21:26.486Z,12.30
2022-09-20T19:24:29.050Z,12.30
2022-09-20T19:27:17.570Z,12.20
2022-09-20T19:30:06.956Z,12.10
2022-09-20T19:32:57.342Z,12.10
2022-09-20T19:35:49.744Z,12.10
2022-09-20T19:38:44.423Z,12.00
2022-09-20T19:41:45.195Z,12.00
2022-09-20T19:44:43.276Z,11.90
2022-09-20T19:47:46.430Z,11.90
2022-09-20T19:50:40.798Z,11.80
2022-09-20T19:53:29.540Z,11.80
2022-09-20T19:56:24.760Z,11.80
2022-09-20T19:59:13.847Z,11.80
2022-09-20T20:02:02.743Z,11.70
2022-09-20T20:04:51.548Z,11.70
2022-09-20T20:07:47.390Z,11.60
2022-09-20T20:10:47.656Z,11.60
2022-09-20T20:14:00.410Z,11.60
2022-09-20T20:17:00.959Z,11.60
2022-09-20T20:20:01.116Z,11.50
2022-09-20T20:23:39.324Z,11.50
2022-09-20T20:26:27.901Z,11.40
2022-09-20T20:29:16.074Z,11.40
2022-09-20T20:32:04.286Z,11.40
2022-09-20T20:34:52.466Z,11.30
2022-09-20T20:37:40.697Z,11.30
2022-09-20T20:40:30.353Z,11.30
2022-09-20T20:43:19.311Z,11.30
2022-09-20T20:46:09.581Z,11.20
2022-09-20T20:48:58.547Z,11.20
2022-09-20T20:51:47.547Z,11.20
2022-09-20T20:54:35.732Z,11.10
2022-09-20T20:57:25.596Z,11.10
2022-09-20T21:00:15.096Z,11.10
2022-09-20T21:03:03.861Z,11.10
2022-09-20T21:06:04.385Z,11.10
2022-09-20T21:08:53.097Z,11.10
2022-09-20T21:11:43.173Z,11.10
2022-09-20T21:14:34.584Z,11.00
2022-09-20T21:17:22.749Z,11.10
2022-09-20T21:20:11.798Z,11.10
2022-09-20T21:22:59.994Z,11.10
2022-09-20T21:25:49.144Z,11.00
2022-09-20T21:28:38.739Z,11.00
2022-09-20T21:31:29.779Z,10.90
2022-09-20T21:34:17.901Z,10.90
2022-09-20T21:37:06.305Z,10.90
2022-09-20T21:39:55.150Z,10.90
2022-09-20T21:42:43.438Z,10.80
2022-09-20T21:45:31.605Z,10.80
2022-09-20T21:48:21.249Z,10.80
2022-09-20T21:51:11.390Z,10.80
2022-09-20T21:54:01.433Z,10.80
2022-09-20T21:56:50.553Z,10.70
2022-09-20T21:59:38.749Z,10.70
2022-09-20T22:02:26.910Z,10.70
2022-09-20T22:05:16.562Z,10.70
2022-09-20T22:08:04.742Z,10.60
2022-09-20T22:10:57.673Z,10.70
2022-09-20T22:13:47.277Z,10.60
2022-09-20T22:16:37.879Z,10.60
2022-09-20T22:19:26.056Z,10.60
2022-09-20T22:22:15.568Z,10.60
2022-09-20T22:25:03.720Z,10.60
2022-09-20T22:27:52.763Z,10.60
2022-09-20T22:30:40.956Z,10.50
2022-09-20T22:33:30.926Z,10.50
2022-09-20T22:36:21.049Z,10.50
2022-09-20T22:39:12.516Z,10.50
2022-09-20T22:42:00.701Z,10.40
2022-09-20T22:44:48.918Z,10.40
2022-09-20T22:47:37.073Z,10.40
2022-09-20T22:50:25.301Z,10.40
2022-09-20T22:53:13.438Z,10.40
2022-09-20T22:56:08.501Z,10.40
2022-09-20T22:58:59.979Z,10.40
2022-09-20T23:01:49.481Z,10.40
2022-09-20T23:04:37.799Z,10.40
2022-09-20T23:07:26.017Z,10.40
2022-09-20T23:10:14.213Z,10.40
2022-09-20T23:13:03.734Z,10.30
2022-09-20T23:15:51.909Z,10.30
2022-09-20T23:18:40.141Z,10.30
2022-09-20T23:21:29.175Z,10.20
2022-09-20T23:24:17.457Z,10.20
2022-09-20T23:27:05.834Z,10.30
2022-09-20T23:29:55.339Z,10.30
2022-09-20T23:32:43.511Z,10.30
2022-09-20T23:35:31.654Z,10.30
2022-09-20T23:38:19.831Z,10.20
2022-09-20T23:41:09.450Z,10.10
2022-09-20T23:43:57.783Z,10.10
2022-09-20T23:46:47.470Z,10.10
2022-09-20T23:49:36.760Z,10.10
2022-09-20T23:52:24.959Z,10.00
2022-09-20T23:55:13.308Z,10.10
2022-09-20T23:58:01.482Z,10.00
